sensor_id;sensor_type;location;lat;lon;timestamp;temperature;humidity
5218;DHT22;26539;51.064;6.346;2023-09-19T00:01:29;16.60;21.50
5218;DHT22;26539;51.064;6.346;2023-09-19T00:03:57;16.50;41.70
5218;DHT22;26539;51.064;6.346;2023-09-19T00:06:23;16.60;50.10
5218;DHT22;26539;51.064;6.346;2023-09-19T00:08:51;16.50;75.00
5218;DHT22;26539;51.064;6.346;2023-09-19T00:11:17;16.50;99.90
5218;DHT22;26539;51.064;6.346;2023-09-19T00:13:42;16.50;44.30
5218;DHT22;26539;51.064;6.346;2023-09-19T00:16:10;16.50;46.30
5218;DHT22;26539;51.064;6.346;2023-09-19T00:18:37;16.50;95.00
5218;DHT22;26539;51.064;6.346;2023-09-19T00:21:03;16.50;14.60
5218;DHT22;26539;51.064;6.346;2023-09-19T00:23:30;16.50;1.00
5218;DHT22;26539;51.064;6.346;2023-09-19T00:26:00;16.50;1.00
5218;DHT22;26539;51.064;6.346;2023-09-19T00:28:26;16.50;1.00
5218;DHT22;26539;51.064;6.346;2023-09-19T00:30:52;16.50;1.00
5218;DHT22;26539;51.064;6.346;2023-09-19T00:33:19;16.50;1.00
5218;DHT22;26539;51.064;6.346;2023-09-19T00:35:49;16.60;1.00
5218;DHT22;26539;51.064;6.346;2023-09-19T00:38:14;16.60;1.00
5218;DHT22;26539;51.064;6.346;2023-09-19T00:40:45;16.60;1.00
5218;DHT22;26539;51.064;6.346;2023-09-19T00:43:11;16.60;1.00
5218;DHT22;26539;51.064;6.346;2023-09-19T00:45:37;16.60;1.00
5218;DHT22;26539;51.064;6.346;2023-09-19T00:48:07;16.60;1.00
5218;DHT22;26539;51.064;6.346;2023-09-19T00:50:35;16.50;1.00
5218;DHT22;26539;51.064;6.346;2023-09-19T00:53:01;16.50;1.00
5218;DHT22;26539;51.064;6.346;2023-09-19T00:55:33;16.50;1.00
5218;DHT22;26539;51.064;6.346;2023-09-19T00:58:00;16.50;1.00
5218;DHT22;26539;51.064;6.346;2023-09-19T01:00:26;16.50;1.00
5218;DHT22;26539;51.064;6.346;2023-09-19T01:02:52;16.50;1.00
5218;DHT22;26539;51.064;6.346;2023-09-19T01:05:18;16.50;1.00
5218;DHT22;26539;51.064;6.346;2023-09-19T01:07:44;16.40;1.00
5218;DHT22;26539;51.064;6.346;2023-09-19T01:10:19;16.40;45.70
5218;DHT22;26539;51.064;6.346;2023-09-19T01:13:15;16.40;99.90
5218;DHT22;26539;51.064;6.346;2023-09-19T01:15:55;16.30;99.90
5218;DHT22;26539;51.064;6.346;2023-09-19T01:18:47;16.30;99.90
5218;DHT22;26539;51.064;6.346;2023-09-19T01:21:31;16.30;99.90
5218;DHT22;26539;51.064;6.346;2023-09-19T01:30:21;16.30;1.00
5218;DHT22;26539;51.064;6.346;2023-09-19T01:32:53;16.20;1.00
5218;DHT22;26539;51.064;6.346;2023-09-19T01:35:19;16.20;1.00
5218;DHT22;26539;51.064;6.346;2023-09-19T01:37:44;16.20;1.00
5218;DHT22;26539;51.064;6.346;2023-09-19T01:40:15;16.20;1.00
5218;DHT22;26539;51.064;6.346;2023-09-19T01:42:59;16.20;1.00
5218;DHT22;26539;51.064;6.346;2023-09-19T01:45:56;16.20;1.00
5218;DHT22;26539;51.064;6.346;2023-09-19T01:51:08;16.20;1.00
5218;DHT22;26539;51.064;6.346;2023-09-19T01:53:55;16.20;1.00
5218;DHT22;26539;51.064;6.346;2023-09-19T01:56:34;16.20;1.00
5218;DHT22;26539;51.064;6.346;2023-09-19T01:59:08;16.20;1.00
5218;DHT22;26539;51.064;6.346;2023-09-19T02:01:37;16.20;1.00
5218;DHT22;26539;51.064;6.346;2023-09-19T02:04:06;16.20;1.00
5218;DHT22;26539;51.064;6.346;2023-09-19T02:06:32;16.20;99.90
5218;DHT22;26539;51.064;6.346;2023-09-19T02:08:59;16.10;99.90
5218;DHT22;26539;51.064;6.346;2023-09-19T02:11:25;16.10;99.90
5218;DHT22;26539;51.064;6.346;2023-09-19T02:13:50;16.10;99.90
5218;DHT22;26539;51.064;6.346;2023-09-19T02:16:19;16.10;22.40
5218;DHT22;26539;51.064;6.346;2023-09-19T02:18:49;16.00;99.90
5218;DHT22;26539;51.064;6.346;2023-09-19T02:21:15;16.00;99.90
5218;DHT22;26539;51.064;6.346;2023-09-19T02:23:41;16.00;1.00
5218;DHT22;26539;51.064;6.346;2023-09-19T02:26:09;16.00;1.00
5218;DHT22;26539;51.064;6.346;2023-09-19T02:28:37;15.90;1.00
5218;DHT22;26539;51.064;6.346;2023-09-19T02:31:05;15.90;1.00
5218;DHT22;26539;51.064;6.346;2023-09-19T02:33:31;15.90;1.00
5218;DHT22;26539;51.064;6.346;2023-09-19T02:35:58;15.90;1.00
5218;DHT22;26539;51.064;6.346;2023-09-19T02:38:27;15.80;1.00
5218;DHT22;26539;51.064;6.346;2023-09-19T02:40:52;15.80;1.00
5218;DHT22;26539;51.064;6.346;2023-09-19T02:43:18;15.80;1.00
5218;DHT22;26539;51.064;6.346;2023-09-19T02:45:45;15.80;1.00
5218;DHT22;26539;51.064;6.346;2023-09-19T02:48:12;15.80;1.00
5218;DHT22;26539;51.064;6.346;2023-09-19T02:50:37;15.80;1.00
5218;DHT22;26539;51.064;6.346;2023-09-19T02:53:04;15.70;1.00
5218;DHT22;26539;51.064;6.346;2023-09-19T02:55:30;15.70;1.00
5218;DHT22;26539;51.064;6.346;2023-09-19T02:58:00;15.70;1.00
5218;DHT22;26539;51.064;6.346;2023-09-19T03:00:27;15.70;1.00
5218;DHT22;26539;51.064;6.346;2023-09-19T03:02:56;15.70;99.90
5218;DHT22;26539;51.064;6.346;2023-09-19T03:05:22;15.70;99.90
5218;DHT22;26539;51.064;6.346;2023-09-19T03:07:54;15.70;99.90
5218;DHT22;26539;51.064;6.346;2023-09-19T03:10:21;15.70;99.90
5218;DHT22;26539;51.064;6.346;2023-09-19T03:12:47;15.60;99.90
5218;DHT22;26539;51.064;6.346;2023-09-19T03:15:14;15.60;1.00
5218;DHT22;26539;51.064;6.346;2023-09-19T03:17:43;15.60;1.00
5218;DHT22;26539;51.064;6.346;2023-09-19T03:20:09;15.60;1.00
5218;DHT22;26539;51.064;6.346;2023-09-19T03:22:37;15.60;99.90
5218;DHT22;26539;51.064;6.346;2023-09-19T03:25:03;15.60;90.30
5218;DHT22;26539;51.064;6.346;2023-09-19T03:27:33;15.60;99.90
5218;DHT22;26539;51.064;6.346;2023-09-19T03:29:59;15.50;99.90
5218;DHT22;26539;51.064;6.346;2023-09-19T03:32:45;15.50;99.90
5218;DHT22;26539;51.064;6.346;2023-09-19T03:35:11;15.50;99.90
5218;DHT22;26539;51.064;6.346;2023-09-19T03:37:40;15.50;99.90
5218;DHT22;26539;51.064;6.346;2023-09-19T03:40:06;15.50;99.90
5218;DHT22;26539;51.064;6.346;2023-09-19T03:42:32;15.50;99.90
5218;DHT22;26539;51.064;6.346;2023-09-19T03:44:58;15.50;99.90
5218;DHT22;26539;51.064;6.346;2023-09-19T03:47:25;15.50;1.00
5218;DHT22;26539;51.064;6.346;2023-09-19T03:49:50;15.50;1.00
5218;DHT22;26539;51.064;6.346;2023-09-19T03:52:17;15.40;1.00
5218;DHT22;26539;51.064;6.346;2023-09-19T03:54:43;15.50;1.00
5218;DHT22;26539;51.064;6.346;2023-09-19T03:57:08;15.50;1.00
5218;DHT22;26539;51.064;6.346;2023-09-19T03:59:34;15.40;1.00
5218;DHT22;26539;51.064;6.346;2023-09-19T04:02:01;15.50;99.90
5218;DHT22;26539;51.064;6.346;2023-09-19T04:04:27;15.50;99.90
5218;DHT22;26539;51.064;6.346;2023-09-19T04:06:54;15.50;99.90
5218;DHT22;26539;51.064;6.346;2023-09-19T04:09:20;15.50;85.90
5218;DHT22;26539;51.064;6.346;2023-09-19T04:11:45;15.40;99.90
5218;DHT22;26539;51.064;6.346;2023-09-19T04:14:11;15.40;1.00
5218;DHT22;26539;51.064;6.346;2023-09-19T04:16:36;15.40;1.00
5218;DHT22;26539;51.064;6.346;2023-09-19T04:19:02;15.40;1.00
5218;DHT22;26539;51.064;6.346;2023-09-19T04:21:29;15.40;1.00
5218;DHT22;26539;51.064;6.346;2023-09-19T04:23:54;15.30;1.00
5218;DHT22;26539;51.064;6.346;2023-09-19T04:26:20;15.30;1.00
5218;DHT22;26539;51.064;6.346;2023-09-19T04:28:47;15.30;1.00
5218;DHT22;26539;51.064;6.346;2023-09-19T04:31:12;15.30;99.90
5218;DHT22;26539;51.064;6.346;2023-09-19T04:33:39;15.30;99.90
5218;DHT22;26539;51.064;6.346;2023-09-19T04:36:04;15.30;99.90
5218;DHT22;26539;51.064;6.346;2023-09-19T04:38:33;15.30;99.90
5218;DHT22;26539;51.064;6.346;2023-09-19T04:41:01;15.30;1.00
5218;DHT22;26539;51.064;6.346;2023-09-19T04:43:27;15.30;1.00
5218;DHT22;26539;51.064;6.346;2023-09-19T04:45:54;15.20;99.90
5218;DHT22;26539;51.064;6.346;2023-09-19T04:48:22;15.40;99.90
5218;DHT22;26539;51.064;6.346;2023-09-19T04:50:49;15.20;37.30
5218;DHT22;26539;51.064;6.346;2023-09-19T04:53:14;15.20;17.80
5218;DHT22;26539;51.064;6.346;2023-09-19T04:55:40;15.20;1.00
5218;DHT22;26539;51.064;6.346;2023-09-19T04:58:05;15.20;99.90
5218;DHT22;26539;51.064;6.346;2023-09-19T05:00:31;15.30;99.90
5218;DHT22;26539;51.064;6.346;2023-09-19T05:03:00;15.40;99.90
5218;DHT22;26539;51.064;6.346;2023-09-19T05:05:26;15.40;99.90
5218;DHT22;26539;51.064;6.346;2023-09-19T05:07:52;15.40;99.90
5218;DHT22;26539;51.064;6.346;2023-09-19T05:10:19;15.40;1.00
5218;DHT22;26539;51.064;6.346;2023-09-19T05:12:45;15.40;1.00
5218;DHT22;26539;51.064;6.346;2023-09-19T05:15:13;15.40;1.00
5218;DHT22;26539;51.064;6.346;2023-09-19T05:17:40;15.40;1.00
5218;DHT22;26539;51.064;6.346;2023-09-19T05:20:06;15.40;99.90
5218;DHT22;26539;51.064;6.346;2023-09-19T05:22:58;15.50;99.90
5218;DHT22;26539;51.064;6.346;2023-09-19T05:25:25;15.50;1.00
5218;DHT22;26539;51.064;6.346;2023-09-19T05:27:54;15.50;99.90
5218;DHT22;26539;51.064;6.346;2023-09-19T05:30:19;15.60;1.00
5218;DHT22;26539;51.064;6.346;2023-09-19T05:32:45;15.60;99.90
5218;DHT22;26539;51.064;6.346;2023-09-19T05:35:10;15.70;99.90
5218;DHT22;26539;51.064;6.346;2023-09-19T05:37:39;15.70;99.90
5218;DHT22;26539;51.064;6.346;2023-09-19T05:40:04;15.70;99.90
5218;DHT22;26539;51.064;6.346;2023-09-19T05:42:34;15.70;99.90
5218;DHT22;26539;51.064;6.346;2023-09-19T05:45:00;15.70;99.90
5218;DHT22;26539;51.064;6.346;2023-09-19T05:47:25;15.80;99.90
5218;DHT22;26539;51.064;6.346;2023-09-19T05:49:51;15.80;99.90
5218;DHT22;26539;51.064;6.346;2023-09-19T05:52:17;15.80;99.90
5218;DHT22;26539;51.064;6.346;2023-09-19T05:54:43;15.80;1.00
5218;DHT22;26539;51.064;6.346;2023-09-19T05:57:08;15.90;99.90
5218;DHT22;26539;51.064;6.346;2023-09-19T05:59:45;15.90;99.90
5218;DHT22;26539;51.064;6.346;2023-09-19T06:02:11;16.00;99.90
5218;DHT22;26539;51.064;6.346;2023-09-19T06:04:37;16.10;93.50
5218;DHT22;26539;51.064;6.346;2023-09-19T06:07:06;16.10;1.00
5218;DHT22;26539;51.064;6.346;2023-09-19T06:09:32;16.20;1.00
5218;DHT22;26539;51.064;6.346;2023-09-19T06:11:58;16.30;1.00
5218;DHT22;26539;51.064;6.346;2023-09-19T06:14:23;16.40;99.90
5218;DHT22;26539;51.064;6.346;2023-09-19T06:16:49;16.40;99.90
5218;DHT22;26539;51.064;6.346;2023-09-19T06:19:15;16.40;99.90
5218;DHT22;26539;51.064;6.346;2023-09-19T06:21:41;16.60;22.00
5218;DHT22;26539;51.064;6.346;2023-09-19T06:24:06;16.70;1.00
5218;DHT22;26539;51.064;6.346;2023-09-19T06:26:32;16.90;99.90
5218;DHT22;26539;51.064;6.346;2023-09-19T06:28:58;17.00;99.90
5218;DHT22;26539;51.064;6.346;2023-09-19T06:31:25;17.20;99.90
5218;DHT22;26539;51.064;6.346;2023-09-19T06:33:52;17.40;1.00
5218;DHT22;26539;51.064;6.346;2023-09-19T06:36:17;17.60;1.00
5218;DHT22;26539;51.064;6.346;2023-09-19T06:38:44;17.70;1.00
5218;DHT22;26539;51.064;6.346;2023-09-19T06:41:10;17.80;1.00
5218;DHT22;26539;51.064;6.346;2023-09-19T06:43:36;18.00;99.90
5218;DHT22;26539;51.064;6.346;2023-09-19T06:46:02;18.20;99.90
5218;DHT22;26539;51.064;6.346;2023-09-19T06:48:28;18.50;99.90
5218;DHT22;26539;51.064;6.346;2023-09-19T06:50:55;18.80;99.90
5218;DHT22;26539;51.064;6.346;2023-09-19T06:53:21;19.10;99.90
5218;DHT22;26539;51.064;6.346;2023-09-19T06:55:51;19.30;65.60
5218;DHT22;26539;51.064;6.346;2023-09-19T06:58:17;19.50;17.50
5218;DHT22;26539;51.064;6.346;2023-09-19T07:00:42;19.70;1.00
5218;DHT22;26539;51.064;6.346;2023-09-19T07:03:10;19.90;1.00
5218;DHT22;26539;51.064;6.346;2023-09-19T07:05:39;20.10;1.00
5218;DHT22;26539;51.064;6.346;2023-09-19T07:08:07;20.50;1.00
5218;DHT22;26539;51.064;6.346;2023-09-19T07:10:32;20.80;1.00
5218;DHT22;26539;51.064;6.346;2023-09-19T07:13:03;21.00;1.00
5218;DHT22;26539;51.064;6.346;2023-09-19T07:15:31;21.40;1.00
5218;DHT22;26539;51.064;6.346;2023-09-19T07:18:00;21.60;1.00
5218;DHT22;26539;51.064;6.346;2023-09-19T07:20:26;21.90;1.00
5218;DHT22;26539;51.064;6.346;2023-09-19T07:22:52;22.30;99.90
5218;DHT22;26539;51.064;6.346;2023-09-19T07:25:20;23.10;1.00
5218;DHT22;26539;51.064;6.346;2023-09-19T07:27:46;23.70;99.90
5218;DHT22;26539;51.064;6.346;2023-09-19T07:30:12;24.90;1.00
5218;DHT22;26539;51.064;6.346;2023-09-19T07:32:38;25.60;1.00
5218;DHT22;26539;51.064;6.346;2023-09-19T07:35:06;26.10;1.00
5218;DHT22;26539;51.064;6.346;2023-09-19T07:37:32;26.70;1.00
5218;DHT22;26539;51.064;6.346;2023-09-19T07:40:02;27.00;1.00
5218;DHT22;26539;51.064;6.346;2023-09-19T07:42:33;27.50;1.00
5218;DHT22;26539;51.064;6.346;2023-09-19T07:45:01;27.50;1.00
5218;DHT22;26539;51.064;6.346;2023-09-19T07:47:29;27.30;1.00
5218;DHT22;26539;51.064;6.346;2023-09-19T07:49:58;27.40;1.00
5218;DHT22;26539;51.064;6.346;2023-09-19T07:52:24;27.80;1.00
5218;DHT22;26539;51.064;6.346;2023-09-19T07:54:50;27.90;1.00
5218;DHT22;26539;51.064;6.346;2023-09-19T07:57:15;27.70;1.00
5218;DHT22;26539;51.064;6.346;2023-09-19T07:59:41;27.90;1.00
5218;DHT22;26539;51.064;6.346;2023-09-19T08:02:08;27.80;1.00
5218;DHT22;26539;51.064;6.346;2023-09-19T08:04:35;28.20;1.00
5218;DHT22;26539;51.064;6.346;2023-09-19T08:07:00;28.50;1.00
5218;DHT22;26539;51.064;6.346;2023-09-19T08:09:28;28.70;1.00
5218;DHT22;26539;51.064;6.346;2023-09-19T08:11:59;29.10;1.00
5218;DHT22;26539;51.064;6.346;2023-09-19T08:14:36;28.80;1.00
5218;DHT22;26539;51.064;6.346;2023-09-19T08:17:03;28.80;1.00
5218;DHT22;26539;51.064;6.346;2023-09-19T08:19:31;28.90;1.00
5218;DHT22;26539;51.064;6.346;2023-09-19T08:22:00;28.90;1.00
5218;DHT22;26539;51.064;6.346;2023-09-19T08:24:27;28.50;1.00
5218;DHT22;26539;51.064;6.346;2023-09-19T08:26:59;28.20;1.00
5218;DHT22;26539;51.064;6.346;2023-09-19T08:29:30;28.30;1.00
5218;DHT22;26539;51.064;6.346;2023-09-19T08:31:59;28.20;1.00
5218;DHT22;26539;51.064;6.346;2023-09-19T08:34:24;27.90;1.00
5218;DHT22;26539;51.064;6.346;2023-09-19T08:36:54;28.20;1.00
5218;DHT22;26539;51.064;6.346;2023-09-19T08:39:23;28.30;1.00
5218;DHT22;26539;51.064;6.346;2023-09-19T08:41:49;28.20;1.00
5218;DHT22;26539;51.064;6.346;2023-09-19T08:44:15;28.40;1.00
5218;DHT22;26539;51.064;6.346;2023-09-19T08:46:41;28.40;1.00
5218;DHT22;26539;51.064;6.346;2023-09-19T08:49:19;28.60;1.00
5218;DHT22;26539;51.064;6.346;2023-09-19T08:51:55;28.50;1.00
5218;DHT22;26539;51.064;6.346;2023-09-19T08:54:29;28.50;1.00
5218;DHT22;26539;51.064;6.346;2023-09-19T08:57:05;28.10;1.00
5218;DHT22;26539;51.064;6.346;2023-09-19T08:59:33;28.10;1.00
5218;DHT22;26539;51.064;6.346;2023-09-19T09:02:00;28.60;1.00
5218;DHT22;26539;51.064;6.346;2023-09-19T09:04:26;29.30;1.00
5218;DHT22;26539;51.064;6.346;2023-09-19T09:06:52;30.00;1.00
5218;DHT22;26539;51.064;6.346;2023-09-19T09:09:20;30.40;1.00
5218;DHT22;26539;51.064;6.346;2023-09-19T09:11:48;30.70;1.00
5218;DHT22;26539;51.064;6.346;2023-09-19T09:14:14;30.50;1.00
5218;DHT22;26539;51.064;6.346;2023-09-19T09:16:42;30.30;1.00
5218;DHT22;26539;51.064;6.346;2023-09-19T09:19:08;30.30;1.00
5218;DHT22;26539;51.064;6.346;2023-09-19T09:21:33;30.10;1.00
5218;DHT22;26539;51.064;6.346;2023-09-19T09:26:54;31.30;1.00
5218;DHT22;26539;51.064;6.346;2023-09-19T09:29:43;31.30;1.00
5218;DHT22;26539;51.064;6.346;2023-09-19T09:34:57;31.00;1.00
5218;DHT22;26539;51.064;6.346;2023-09-19T09:37:24;31.10;1.00
5218;DHT22;26539;51.064;6.346;2023-09-19T09:40:00;31.10;1.00
5218;DHT22;26539;51.064;6.346;2023-09-19T09:42:48;31.00;1.00
5218;DHT22;26539;51.064;6.346;2023-09-19T09:45:19;30.80;1.00
5218;DHT22;26539;51.064;6.346;2023-09-19T09:48:02;31.20;1.00
5218;DHT22;26539;51.064;6.346;2023-09-19T09:50:47;31.30;1.00
5218;DHT22;26539;51.064;6.346;2023-09-19T09:53:26;31.10;1.00
5218;DHT22;26539;51.064;6.346;2023-09-19T09:58:25;31.00;1.00
5218;DHT22;26539;51.064;6.346;2023-09-19T10:00:58;31.20;1.00
5218;DHT22;26539;51.064;6.346;2023-09-19T10:06:09;32.40;1.00
5218;DHT22;26539;51.064;6.346;2023-09-19T10:09:07;31.80;1.00
5218;DHT22;26539;51.064;6.346;2023-09-19T10:11:45;31.00;1.00
5218;DHT22;26539;51.064;6.346;2023-09-19T10:14:12;30.10;1.00
5218;DHT22;26539;51.064;6.346;2023-09-19T10:16:46;29.40;1.00
5218;DHT22;26539;51.064;6.346;2023-09-19T10:19:20;28.80;1.00
5218;DHT22;26539;51.064;6.346;2023-09-19T10:21:49;28.50;1.00
5218;DHT22;26539;51.064;6.346;2023-09-19T10:24:15;28.30;1.00
5218;DHT22;26539;51.064;6.346;2023-09-19T10:26:50;28.00;1.00
5218;DHT22;26539;51.064;6.346;2023-09-19T10:29:17;27.70;1.00
5218;DHT22;26539;51.064;6.346;2023-09-19T10:31:44;27.80;1.00
5218;DHT22;26539;51.064;6.346;2023-09-19T10:34:14;27.90;1.00
5218;DHT22;26539;51.064;6.346;2023-09-19T10:36:44;27.90;1.00
5218;DHT22;26539;51.064;6.346;2023-09-19T10:39:11;27.70;1.00
5218;DHT22;26539;51.064;6.346;2023-09-19T10:41:53;27.30;99.90
5218;DHT22;26539;51.064;6.346;2023-09-19T10:44:24;27.20;99.90
5218;DHT22;26539;51.064;6.346;2023-09-19T10:46:53;27.00;1.00
5218;DHT22;26539;51.064;6.346;2023-09-19T10:49:20;27.00;1.00
5218;DHT22;26539;51.064;6.346;2023-09-19T10:51:47;26.90;1.00
5218;DHT22;26539;51.064;6.346;2023-09-19T10:54:17;27.20;1.00
5218;DHT22;26539;51.064;6.346;2023-09-19T10:56:48;27.40;1.00
5218;DHT22;26539;51.064;6.346;2023-09-19T10:59:20;28.00;1.00
5218;DHT22;26539;51.064;6.346;2023-09-19T11:01:53;28.50;1.00
5218;DHT22;26539;51.064;6.346;2023-09-19T11:04:29;29.00;1.00
5218;DHT22;26539;51.064;6.346;2023-09-19T11:07:14;29.20;1.00
5218;DHT22;26539;51.064;6.346;2023-09-19T11:15:07;29.70;1.00
5218;DHT22;26539;51.064;6.346;2023-09-19T11:17:40;29.90;1.00
5218;DHT22;26539;51.064;6.346;2023-09-19T11:30:41;31.30;1.00
5218;DHT22;26539;51.064;6.346;2023-09-19T11:36:07;31.50;1.00
5218;DHT22;26539;51.064;6.346;2023-09-19T11:49:18;32.00;99.90
5218;DHT22;26539;51.064;6.346;2023-09-19T11:51:50;32.20;99.90
5218;DHT22;26539;51.064;6.346;2023-09-19T11:54:18;32.10;99.90
5218;DHT22;26539;51.064;6.346;2023-09-19T11:56:48;32.20;99.90
5218;DHT22;26539;51.064;6.346;2023-09-19T11:59:20;32.20;99.90
5218;DHT22;26539;51.064;6.346;2023-09-19T12:01:51;32.40;99.90
5218;DHT22;26539;51.064;6.346;2023-09-19T12:04:43;32.40;99.90
5218;DHT22;26539;51.064;6.346;2023-09-19T12:07:12;32.40;99.90
5218;DHT22;26539;51.064;6.346;2023-09-19T12:09:42;32.50;99.90
5218;DHT22;26539;51.064;6.346;2023-09-19T12:12:10;32.40;99.90
5218;DHT22;26539;51.064;6.346;2023-09-19T12:14:48;32.70;99.90
5218;DHT22;26539;51.064;6.346;2023-09-19T12:17:13;32.80;99.90
5218;DHT22;26539;51.064;6.346;2023-09-19T12:19:40;32.70;99.90
5218;DHT22;26539;51.064;6.346;2023-09-19T12:22:14;32.70;99.90
5218;DHT22;26539;51.064;6.346;2023-09-19T12:24:40;32.60;99.90
5218;DHT22;26539;51.064;6.346;2023-09-19T12:27:08;32.30;99.90
5218;DHT22;26539;51.064;6.346;2023-09-19T12:29:48;32.20;99.90
5218;DHT22;26539;51.064;6.346;2023-09-19T12:32:15;32.40;99.90
5218;DHT22;26539;51.064;6.346;2023-09-19T12:34:53;32.70;99.90
5218;DHT22;26539;51.064;6.346;2023-09-19T12:37:19;32.90;99.90
5218;DHT22;26539;51.064;6.346;2023-09-19T12:39:51;32.80;99.90
5218;DHT22;26539;51.064;6.346;2023-09-19T12:42:22;32.70;99.90
5218;DHT22;26539;51.064;6.346;2023-09-19T12:44:49;32.50;99.90
5218;DHT22;26539;51.064;6.346;2023-09-19T12:47:20;32.30;99.90
5218;DHT22;26539;51.064;6.346;2023-09-19T12:52:42;30.90;99.90
5218;DHT22;26539;51.064;6.346;2023-09-19T12:55:08;30.40;99.90
5218;DHT22;26539;51.064;6.346;2023-09-19T12:57:44;29.80;99.90
5218;DHT22;26539;51.064;6.346;2023-09-19T13:00:20;29.30;99.90
5218;DHT22;26539;51.064;6.346;2023-09-19T13:03:18;29.20;99.90
5218;DHT22;26539;51.064;6.346;2023-09-19T13:05:54;29.30;99.90
5218;DHT22;26539;51.064;6.346;2023-09-19T13:08:26;29.00;99.90
5218;DHT22;26539;51.064;6.346;2023-09-19T13:13:36;29.00;99.90
5218;DHT22;26539;51.064;6.346;2023-09-19T13:16:03;28.90;99.90
5218;DHT22;26539;51.064;6.346;2023-09-19T13:18:29;28.60;99.90
5218;DHT22;26539;51.064;6.346;2023-09-19T13:21:09;28.50;99.90
5218;DHT22;26539;51.064;6.346;2023-09-19T13:23:50;28.30;99.90
5218;DHT22;26539;51.064;6.346;2023-09-19T13:26:16;28.20;99.90
5218;DHT22;26539;51.064;6.346;2023-09-19T13:28:42;27.80;99.90
5218;DHT22;26539;51.064;6.346;2023-09-19T13:31:09;27.40;99.90
5218;DHT22;26539;51.064;6.346;2023-09-19T13:33:43;27.20;99.90
5218;DHT22;26539;51.064;6.346;2023-09-19T13:36:08;26.80;99.90
5218;DHT22;26539;51.064;6.346;2023-09-19T13:38:34;26.50;99.90
5218;DHT22;26539;51.064;6.346;2023-09-19T13:41:00;26.30;99.90
5218;DHT22;26539;51.064;6.346;2023-09-19T13:43:27;26.10;99.90
5218;DHT22;26539;51.064;6.346;2023-09-19T13:45:54;25.90;99.90
5218;DHT22;26539;51.064;6.346;2023-09-19T13:48:19;25.60;99.90
5218;DHT22;26539;51.064;6.346;2023-09-19T13:50:48;25.40;99.90
5218;DHT22;26539;51.064;6.346;2023-09-19T13:53:14;25.30;99.90
5218;DHT22;26539;51.064;6.346;2023-09-19T13:55:39;24.90;99.90
5218;DHT22;26539;51.064;6.346;2023-09-19T13:58:05;24.80;99.90
5218;DHT22;26539;51.064;6.346;2023-09-19T14:00:32;24.70;99.90
5218;DHT22;26539;51.064;6.346;2023-09-19T14:03:00;24.80;99.90
5218;DHT22;26539;51.064;6.346;2023-09-19T14:05:26;25.10;99.90
5218;DHT22;26539;51.064;6.346;2023-09-19T14:07:53;25.00;99.90
5218;DHT22;26539;51.064;6.346;2023-09-19T14:10:26;24.90;99.90
5218;DHT22;26539;51.064;6.346;2023-09-19T14:12:53;24.90;99.90
5218;DHT22;26539;51.064;6.346;2023-09-19T14:15:18;24.70;99.90
5218;DHT22;26539;51.064;6.346;2023-09-19T14:17:44;24.70;99.90
5218;DHT22;26539;51.064;6.346;2023-09-19T14:20:12;24.60;99.90
5218;DHT22;26539;51.064;6.346;2023-09-19T14:22:38;24.50;99.90
5218;DHT22;26539;51.064;6.346;2023-09-19T14:25:04;24.30;99.90
5218;DHT22;26539;51.064;6.346;2023-09-19T14:27:30;24.10;99.90
5218;DHT22;26539;51.064;6.346;2023-09-19T14:29:56;24.10;99.90
5218;DHT22;26539;51.064;6.346;2023-09-19T14:32:22;23.90;99.90
5218;DHT22;26539;51.064;6.346;2023-09-19T14:34:48;23.60;99.90
5218;DHT22;26539;51.064;6.346;2023-09-19T14:37:14;23.30;99.90
5218;DHT22;26539;51.064;6.346;2023-09-19T14:39:41;23.10;99.90
5218;DHT22;26539;51.064;6.346;2023-09-19T14:42:10;23.00;99.90
5218;DHT22;26539;51.064;6.346;2023-09-19T14:44:35;23.00;99.90
5218;DHT22;26539;51.064;6.346;2023-09-19T14:47:03;23.00;99.90
5218;DHT22;26539;51.064;6.346;2023-09-19T14:49:29;23.00;99.90
5218;DHT22;26539;51.064;6.346;2023-09-19T14:51:55;23.10;99.90
5218;DHT22;26539;51.064;6.346;2023-09-19T14:54:20;23.20;99.90
5218;DHT22;26539;51.064;6.346;2023-09-19T14:56:48;23.20;99.90
5218;DHT22;26539;51.064;6.346;2023-09-19T14:59:19;23.20;99.90
5218;DHT22;26539;51.064;6.346;2023-09-19T15:01:45;23.10;99.90
5218;DHT22;26539;51.064;6.346;2023-09-19T15:04:11;23.10;99.90
5218;DHT22;26539;51.064;6.346;2023-09-19T15:06:39;23.00;99.90
5218;DHT22;26539;51.064;6.346;2023-09-19T15:09:04;23.00;99.90
5218;DHT22;26539;51.064;6.346;2023-09-19T15:11:31;23.00;99.90
5218;DHT22;26539;51.064;6.346;2023-09-19T15:13:59;23.00;99.90
5218;DHT22;26539;51.064;6.346;2023-09-19T15:16:25;23.00;99.90
5218;DHT22;26539;51.064;6.346;2023-09-19T15:18:50;22.90;99.90
5218;DHT22;26539;51.064;6.346;2023-09-19T15:21:17;22.80;1.00
5218;DHT22;26539;51.064;6.346;2023-09-19T15:23:43;22.80;1.00
5218;DHT22;26539;51.064;6.346;2023-09-19T15:26:12;22.80;1.00
5218;DHT22;26539;51.064;6.346;2023-09-19T15:28:41;22.80;1.00
5218;DHT22;26539;51.064;6.346;2023-09-19T15:31:08;22.90;1.00
5218;DHT22;26539;51.064;6.346;2023-09-19T15:33:34;22.90;1.00
5218;DHT22;26539;51.064;6.346;2023-09-19T15:36:11;22.90;1.00
5218;DHT22;26539;51.064;6.346;2023-09-19T15:39:02;22.90;1.00
5218;DHT22;26539;51.064;6.346;2023-09-19T15:41:41;22.90;1.00
5218;DHT22;26539;51.064;6.346;2023-09-19T15:44:14;22.80;1.00
5218;DHT22;26539;51.064;6.346;2023-09-19T15:46:43;22.80;1.00
5218;DHT22;26539;51.064;6.346;2023-09-19T15:49:09;22.70;1.00
5218;DHT22;26539;51.064;6.346;2023-09-19T15:51:35;22.80;1.00
5218;DHT22;26539;51.064;6.346;2023-09-19T15:54:01;22.90;1.00
5218;DHT22;26539;51.064;6.346;2023-09-19T15:56:33;23.00;1.00
5218;DHT22;26539;51.064;6.346;2023-09-19T15:59:00;23.00;1.00
5218;DHT22;26539;51.064;6.346;2023-09-19T16:01:26;22.90;1.00
5218;DHT22;26539;51.064;6.346;2023-09-19T16:03:52;22.90;1.00
5218;DHT22;26539;51.064;6.346;2023-09-19T16:06:23;22.90;1.00
5218;DHT22;26539;51.064;6.346;2023-09-19T16:08:50;22.90;1.00
5218;DHT22;26539;51.064;6.346;2023-09-19T16:11:17;22.70;1.00
5218;DHT22;26539;51.064;6.346;2023-09-19T16:13:43;22.60;1.00
5218;DHT22;26539;51.064;6.346;2023-09-19T16:16:11;22.40;1.00
5218;DHT22;26539;51.064;6.346;2023-09-19T16:18:54;22.20;1.00
5218;DHT22;26539;51.064;6.346;2023-09-19T16:21:23;22.10;1.00
5218;DHT22;26539;51.064;6.346;2023-09-19T16:23:50;22.00;1.00
5218;DHT22;26539;51.064;6.346;2023-09-19T16:26:16;21.90;1.00
5218;DHT22;26539;51.064;6.346;2023-09-19T16:28:44;21.80;1.00
5218;DHT22;26539;51.064;6.346;2023-09-19T16:31:10;21.70;1.00
5218;DHT22;26539;51.064;6.346;2023-09-19T16:33:37;21.50;1.00
5218;DHT22;26539;51.064;6.346;2023-09-19T16:36:25;21.40;1.00
5218;DHT22;26539;51.064;6.346;2023-09-19T16:38:51;21.40;1.00
5218;DHT22;26539;51.064;6.346;2023-09-19T16:41:19;21.30;1.00
5218;DHT22;26539;51.064;6.346;2023-09-19T16:43:44;21.30;1.00
5218;DHT22;26539;51.064;6.346;2023-09-19T16:46:11;21.30;1.00
5218;DHT22;26539;51.064;6.346;2023-09-19T16:48:41;21.20;1.00
5218;DHT22;26539;51.064;6.346;2023-09-19T16:51:09;21.10;1.00
5218;DHT22;26539;51.064;6.346;2023-09-19T16:53:37;21.20;1.00
5218;DHT22;26539;51.064;6.346;2023-09-19T16:56:07;21.10;1.00
5218;DHT22;26539;51.064;6.346;2023-09-19T16:58:39;21.00;1.00
5218;DHT22;26539;51.064;6.346;2023-09-19T17:01:09;20.90;1.00